• Join FlightAware (Why Join?)
  • Login
  • US Flag 
02:30AM EDT


 

Airport Tracker/Info


-or-


 

Live Flight TrackerFlight Track Log ✈ CES2307 ✈ 13-Jun-2013 ✈ ZLXY / XIY - ZGKL / KWL

Flight Track Log - Related Links

Times and Time Zones

All times are in EDT time to prevent confusion due to time zone crossing. See the CES2307 flight status page for this flight to view local times or setup timezone preferences in your user account.

Time Position Orientation Groundspeed Altitude Reporting Facility
EDT Latitude Longitude Course Direction KTS MPH feet Rate Location/Type
08:02AM 33.2535 108.9326 173° South  Level Estimated
08:03AM 33.1450 108.9488 173° South  Level Estimated
08:04AM 33.0364 108.9650 173° South  Level Estimated
08:05AM 32.9279 108.9811 173° South  Level Estimated
08:06AM 32.8194 108.9972 173° South  Level Estimated
08:07AM 32.7109 109.0133 173° South  Level Estimated
08:08AM 32.6023 109.0293 173° South  Level Estimated
08:09AM 32.4938 109.0453 173° South  Level Estimated
08:10AM 32.3853 109.0612 173° South  Level Estimated
08:11AM 32.2767 109.0771 173° South  Level Estimated
08:12AM 32.1682 109.0930 173° South  Level Estimated
08:13AM 32.0596 109.1088 173° South  Level Estimated
08:14AM 31.9511 109.1246 173° South  Level Estimated
08:15AM 31.8425 109.1403 173° South  Level Estimated
08:16AM 31.7340 109.1560 173° South  Level Estimated
08:17AM 31.6254 109.1717 173° South  Level Estimated
08:18AM 31.5169 109.1873 173° South  Level Estimated
08:19AM 31.4083 109.2029 173° South  Level Estimated
08:20AM 31.2998 109.2185 173° South  Level Estimated
08:21AM 31.1912 109.2340 173° South  Level Estimated
08:22AM 31.0826 109.2495 173° South  Level Estimated
08:23AM 30.9741 109.2650 173° South  Level Estimated
08:24AM 30.8655 109.2804 173° South  Level Estimated
08:25AM 30.7570 109.2958 173° South  Level Estimated
08:26AM 30.6484 109.3111 173° South  Level Estimated
08:27AM 30.5398 109.3264 173° South  Level Estimated
08:28AM 30.4312 109.3417 173° South  Level Estimated
08:29AM 30.3227 109.3570 173° South  Level Estimated
08:30AM 30.2141 109.3722 173° South  Level Estimated
08:31AM 30.1055 109.3874 173° South  Level Estimated
08:32AM 29.9969 109.4025 173° South  Level Estimated
08:33AM 29.8883 109.4176 173° South  Level Estimated
08:34AM 29.7798 109.4327 173° South  Level Estimated
08:35AM 29.6712 109.4478 173° South  Level Estimated
08:36AM 29.5626 109.4628 173° South  Level Estimated
08:37AM 29.4540 109.4778 173° South  Level Estimated
08:38AM 29.3454 109.4927 173° South  Level Estimated
08:39AM 29.2368 109.5077 173° South  Level Estimated
08:40AM 29.1282 109.5226 173° South  Level Estimated
08:41AM 29.0196 109.5374 173° South  Level Estimated
08:42AM 28.9111 109.5522 173° South  Level Estimated
08:43AM 28.8025 109.5670 173° South  Level Estimated
08:44AM 28.6938 109.5818 173° South  Level Estimated
08:45AM 28.5853 109.5965 173° South  Level Estimated
08:46AM 28.4767 109.6113 173° South  Level Estimated
08:47AM 28.3680 109.6259 173° South  Level Estimated
08:48AM 28.2594 109.6406 173° South  Level Estimated
08:49AM 28.1508 109.6552 173° South  Level Estimated
08:50AM 28.0422 109.6698 173° South  Level Estimated
08:51AM 27.9336 109.6843 173° South  Level Estimated
08:52AM 27.8250 109.6989 173° South  Level Estimated
08:53AM 27.7164 109.7134 173° South  Level Estimated
08:54AM 27.6078 109.7279 173° South  Level Estimated
08:55AM 27.4992 109.7423 173° South  Level Estimated
08:56AM 27.3905 109.7567 173° South  Level Estimated
08:57AM 27.2819 109.7711 173° South  Level Estimated
08:58AM 27.1733 109.7854 173° South  Level Estimated
08:59AM 27.0647 109.7998 173° South  Level Estimated
09:00AM 26.9561 109.8141 173° South  Level Estimated
09:01AM 26.8474 109.8283 173° South  Level Estimated
09:02AM 26.7388 109.8426 173° South  Level Estimated
09:03AM 26.6302 109.8568 173° South  Level Estimated
09:04AM 26.5215 109.8710 173° South  Level Estimated
09:05AM 26.4129 109.8851 173° South  Level Estimated
09:06AM 26.3043 109.8993 173° South  Level Estimated
09:07AM 26.1957 109.9134 173° South  Level Estimated
09:08AM 26.0870 109.9275 173° South  Level Estimated
09:09AM 25.9784 109.9415 173° South  Level Estimated
09:10AM 25.8697 109.9556 173° South  Level Estimated
09:11AM 25.7611 109.9696 173° South  Level Estimated
09:12AM 25.6525 109.9836 173° South  Level Estimated
09:13AM 25.5438 109.9975 173° South  Level Estimated
09:14AM 25.4352 110.0114 173° South  Level Estimated
09:15AM 25.3265 110.0253 173° South  Level Estimated
09:16AM 25.2181 110.0392 173° South  Level Estimated
09:17AM 25.2181 110.0392 214° Southwest  Level Estimated
09:18AM 25.2181 110.0392 214° Southwest  Level Estimated
09:19AM 25.2181 110.0392 214° Southwest  Level Estimated
09:20AM 25.2181 110.0392 214° Southwest  Level Estimated
09:21AM 25.2181 110.0392 214° Southwest  Level Estimated
09:22AM 25.2181 110.0392 214° Southwest  Level Estimated
09:23AM 25.2181 110.0392 214° Southwest  Level Estimated